FVCN weather

Centenary Airport
Mashonaland Central Province, Zimbabwe

Public forecast

Using degrees Celsius for public forecast. Weather courtesy of forecast.io.

Closest aviation weather report (METAR) to Centenary Airport

Report is more than 6 hours old.

Closest report is Robert Gabriel Mugabe International Airport, 71.9 nm (133.2 km) S. Retrieved 2019/12/15 09:00 UTC (6 hours ago):

FVRG 150900Z VRB03KT 9999 FEW040 26/14 Q1023 NOSIG

Closest aviation forecast (TAF) to Centenary Airport

Closest forecast is Robert Gabriel Mugabe International Airport, 71.9 nm (133.2 km) S. Retrieved 2019/12/15 12:00 UTC (3 hours ago):

TAF FVRG 151000Z 1512/1618 VRB05KT 9999 FEW040 FM151200Z CAVOK BECMG 1608/1610 FEW030 FM161200Z CAVOK